Time;durP1;ratioP1;P1;durP2;ratioP2;P2;SDS_P1;SDS_P2;PMS_P1;PMS_P2;Temp;Humidity;BMP_temperature;BMP_pressure;BME280_temperature;BME280_humidity;BME280_pressure;Samples;Min_cycle;Max_cycle;Signal;HPM_P1;HPM_P2
2023/05/13 00:01:16;;;;;;;8.98;5.57;;;13.30;99.90;;;;;;4979484;28;20065;-69
2023/05/13 00:03:42;;;;;;;6.13;4.82;;;13.20;99.90;;;;;;4994583;28;20101;-69
2023/05/13 00:06:07;;;;;;;7.55;5.30;;;13.20;99.90;;;;;;4995666;28;20076;-69
2023/05/13 00:08:33;;;;;;;7.85;5.32;;;13.10;99.90;;;;;;4994955;28;20481;-69
2023/05/13 00:10:59;;;;;;;5.43;4.82;;;13.10;99.90;;;;;;4995492;28;20053;-69
2023/05/13 00:13:25;;;;;;;7.53;5.63;;;13.00;99.90;;;;;;4995514;28;20047;-69
2023/05/13 00:15:51;;;;;;;7.60;5.43;;;13.00;99.90;;;;;;4995975;28;20100;-69
2023/05/13 00:18:17;;;;;;;6.75;6.07;;;12.90;99.90;;;;;;4995447;28;20140;-69
2023/05/13 00:20:43;;;;;;;9.07;5.63;;;12.90;99.90;;;;;;4995344;28;20104;-69
2023/05/13 00:23:09;;;;;;;6.55;5.63;;;12.80;99.90;;;;;;4961758;28;20050;-69
2023/05/13 00:25:34;;;;;;;7.03;5.70;;;12.80;99.90;;;;;;4995290;28;20042;-69
2023/05/13 00:28:00;;;;;;;6.78;5.93;;;12.70;99.90;;;;;;4995770;28;20046;-69
2023/05/13 00:30:26;;;;;;;7.22;5.90;;;12.70;99.90;;;;;;4994591;28;20046;-69
2023/05/13 00:32:51;;;;;;;6.57;5.20;;;12.70;99.90;;;;;;4994496;28;20049;-69
2023/05/13 00:35:17;;;;;;;8.57;5.40;;;12.60;99.90;;;;;;4995642;28;20053;-69
2023/05/13 00:37:43;;;;;;;7.10;5.15;;;12.60;99.90;;;;;;4995082;28;20085;-69
2023/05/13 00:40:22;;;;;;;6.18;5.55;;;12.60;99.90;;;;;;4994711;28;20076;-69
2023/05/13 00:42:49;;;;;;;7.40;5.65;;;12.60;99.90;;;;;;4995064;28;20141;-69
2023/05/13 00:45:15;;;;;;;6.55;5.88;;;12.50;99.90;;;;;;4994624;28;20046;-69
2023/05/13 00:47:42;;;;;;;8.68;5.25;;;12.50;99.90;;;;;;4994754;28;20101;-69
2023/05/13 00:50:09;;;;;;;9.82;5.40;;;12.50;99.90;;;;;;4994919;28;20048;-69
2023/05/13 00:52:39;;;;;;;7.28;6.57;;;12.50;99.90;;;;;;4994777;28;20054;-69
2023/05/13 00:55:06;;;;;;;7.10;5.82;;;12.50;99.90;;;;;;4993480;28;20133;-68
2023/05/13 00:57:32;;;;;;;7.43;5.72;;;12.50;99.90;;;;;;4993525;28;20061;-69
2023/05/13 00:59:58;;;;;;;8.18;5.90;;;12.50;99.90;;;;;;4994507;28;20058;-69
2023/05/13 01:02:35;;;;;;;7.88;5.47;;;12.50;99.90;;;;;;4977203;28;20073;-69
2023/05/13 01:05:30;;;;;;;9.90;5.80;;;12.40;99.90;;;;;;4994595;28;20049;-69
2023/05/13 01:08:09;;;;;;;6.75;5.50;;;12.50;99.90;;;;;;4995268;28;20050;-69
2023/05/13 01:10:49;;;;;;;7.30;6.35;;;12.40;99.90;;;;;;4994610;28;20386;-69
2023/05/13 01:13:22;;;;;;;7.25;5.88;;;12.40;99.90;;;;;;4994430;28;20390;-69
2023/05/13 01:15:50;;;;;;;;;;;12.40;99.90;;;;;;4994968;28;20061;-69
2023/05/13 01:18:23;;;;;;;7.05;5.40;;;12.30;99.90;;;;;;4977269;28;19921;-69
2023/05/13 01:20:49;;;;;;;6.75;6.05;;;12.30;99.90;;;;;;4994499;28;20096;-69
2023/05/13 01:23:14;;;;;;;9.68;6.50;;;12.30;99.90;;;;;;4993317;28;20078;-69
2023/05/13 01:25:40;;;;;;;7.32;6.40;;;12.30;99.90;;;;;;4994341;28;20046;-69
2023/05/13 01:28:07;;;;;;;10.65;6.10;;;12.20;99.90;;;;;;4994917;28;20394;-69
2023/05/13 01:30:34;;;;;;;7.45;6.72;;;12.20;99.90;;;;;;4994321;28;20046;-69
2023/05/13 01:33:00;;;;;;;11.18;6.78;;;12.20;99.90;;;;;;4994275;28;20390;-69
2023/05/13 01:35:28;;;;;;;8.10;6.63;;;12.20;99.90;;;;;;4994273;28;20053;-68
2023/05/13 01:37:58;;;;;;;8.88;6.35;;;12.20;99.90;;;;;;4994250;28;20230;-69
2023/05/13 01:40:24;;;;;;;8.27;6.38;;;12.20;99.90;;;;;;4993544;28;20073;-69
2023/05/13 01:42:50;;;;;;;8.40;6.25;;;12.20;99.90;;;;;;4994529;28;20487;-69
2023/05/13 01:45:17;;;;;;;7.68;6.57;;;12.20;99.90;;;;;;4994734;28;20101;-69
2023/05/13 01:47:42;;;;;;;7.57;6.43;;;12.20;99.90;;;;;;4994374;28;20488;-69
2023/05/13 01:50:08;;;;;;;8.23;6.63;;;12.20;99.90;;;;;;4994131;28;20054;-69
2023/05/13 01:52:34;;;;;;;8.15;7.35;;;12.20;99.90;;;;;;4994074;28;20050;-69
2023/05/13 01:55:00;;;;;;;8.85;7.28;;;12.20;99.90;;;;;;4994583;28;20129;-69
2023/05/13 01:57:26;;;;;;;7.38;6.60;;;12.20;99.90;;;;;;4992899;28;20042;-69
2023/05/13 01:59:51;;;;;;;10.20;8.27;;;12.20;99.90;;;;;;4993427;28;20393;-69
2023/05/13 02:02:17;;;;;;;8.38;6.53;;;12.20;99.90;;;;;;4994071;28;20058;-69
2023/05/13 02:04:43;;;;;;;8.35;7.15;;;12.20;99.90;;;;;;4994203;28;20054;-69
2023/05/13 02:07:09;;;;;;;7.47;6.47;;;12.20;99.90;;;;;;4994511;28;20466;-69
2023/05/13 02:09:35;;;;;;;7.85;6.60;;;12.20;99.90;;;;;;4992961;28;20129;-69
2023/05/13 02:12:00;;;;;;;8.35;6.85;;;12.20;99.90;;;;;;4994392;28;20050;-68
2023/05/13 02:14:26;;;;;;;9.05;6.75;;;12.20;99.90;;;;;;4993877;28;20042;-69
2023/05/13 02:16:52;;;;;;;9.20;6.25;;;12.20;99.90;;;;;;4993915;28;20047;-68
2023/05/13 02:19:18;;;;;;;9.27;6.63;;;12.20;99.90;;;;;;4978158;28;20455;-69
2023/05/13 02:21:44;;;;;;;9.68;6.38;;;12.30;99.90;;;;;;4998125;28;20532;-69
2023/05/13 02:24:10;;;;;;;8.18;7.05;;;12.30;99.90;;;;;;4996884;28;20129;-68
2023/05/13 02:26:35;;;;;;;9.05;6.28;;;12.30;99.90;;;;;;4998045;28;20085;-68
2023/05/13 02:29:01;;;;;;;10.48;7.35;;;12.30;99.90;;;;;;4998038;28;20379;-69
2023/05/13 02:31:27;;;;;;;9.23;6.65;;;12.30;99.90;;;;;;4997431;28;20043;-68
2023/05/13 02:33:53;;;;;;;9.32;6.55;;;12.30;99.90;;;;;;4997415;28;20049;-68
2023/05/13 02:36:19;;;;;;;9.43;7.38;;;12.30;99.90;;;;;;4996129;28;20474;-68
2023/05/13 02:38:44;;;;;;;8.32;7.13;;;12.30;99.90;;;;;;4997326;28;20042;-68
2023/05/13 02:41:10;;;;;;;10.13;7.32;;;12.20;99.90;;;;;;4996483;28;20449;-68
2023/05/13 02:43:35;;;;;;;8.93;7.65;;;12.20;99.90;;;;;;4997130;28;20039;-68
2023/05/13 02:46:02;;;;;;;9.75;7.60;;;12.20;99.90;;;;;;4996211;28;20121;-68
2023/05/13 02:48:28;;;;;;;9.60;7.47;;;12.10;99.90;;;;;;4996696;28;20046;-69
2023/05/13 02:50:54;;;;;;;8.63;7.53;;;12.10;99.90;;;;;;4997046;28;20466;-69
2023/05/13 02:53:19;;;;;;;9.75;7.60;;;12.00;99.90;;;;;;4995830;28;20056;-68
2023/05/13 02:55:45;;;;;;;9.13;7.75;;;12.00;99.90;;;;;;4979661;28;20055;-69
2023/05/13 02:58:12;;;;;;;10.15;8.00;;;12.00;99.90;;;;;;4996661;28;20138;-69
2023/05/13 03:00:37;;;;;;;10.60;7.38;;;12.00;99.90;;;;;;4997206;28;20492;-69
2023/05/13 03:03:03;;;;;;;9.18;8.25;;;11.90;99.90;;;;;;4996826;28;20133;-69
2023/05/13 03:05:29;;;;;;;11.93;8.25;;;11.90;99.90;;;;;;4995637;28;20060;-68
2023/05/13 03:07:54;;;;;;;10.57;7.50;;;11.90;99.90;;;;;;4996091;28;20381;-68
2023/05/13 03:10:20;;;;;;;9.40;8.23;;;11.90;99.90;;;;;;4996712;28;20097;-68
2023/05/13 03:12:46;;;;;;;10.60;8.43;;;11.80;99.90;;;;;;4997065;28;20054;-68
2023/05/13 03:15:11;;;;;;;9.02;7.75;;;11.80;99.90;;;;;;4996630;28;20046;-68
2023/05/13 03:17:37;;;;;;;9.35;8.35;;;11.80;99.90;;;;;;4996594;28;20046;-68
2023/05/13 03:20:03;;;;;;;11.93;8.70;;;11.80;99.90;;;;;;4996580;28;20045;-69
2023/05/13 03:22:29;;;;;;;12.77;8.52;;;11.80;99.90;;;;;;4996502;28;20108;-68
2023/05/13 03:24:56;;;;;;;10.35;9.05;;;11.70;99.90;;;;;;4996361;28;20046;-68
2023/05/13 03:27:21;;;;;;;10.07;8.68;;;11.70;99.90;;;;;;4995219;28;20054;-69
2023/05/13 03:29:47;;;;;;;11.32;8.27;;;11.70;99.90;;;;;;4978884;28;20042;-68
2023/05/13 03:32:13;;;;;;;12.55;8.98;;;11.70;99.90;;;;;;4996282;28;20077;-68
2023/05/13 03:34:38;;;;;;;11.10;8.68;;;11.60;99.90;;;;;;4996279;28;20053;-68
2023/05/13 03:37:04;;;;;;;9.50;8.27;;;11.60;99.90;;;;;;4996740;28;20097;-68
2023/05/13 03:39:30;;;;;;;10.90;8.80;;;11.60;99.90;;;;;;4996985;28;20061;-68
2023/05/13 03:41:55;;;;;;;10.43;9.40;;;11.50;99.90;;;;;;4995387;28;20475;-68
2023/05/13 03:44:21;;;;;;;9.43;8.50;;;11.50;99.90;;;;;;4996511;28;20426;-68
2023/05/13 03:46:47;;;;;;;10.95;8.57;;;11.50;99.90;;;;;;4994923;28;20501;-68
2023/05/13 03:49:12;;;;;;;10.05;8.98;;;11.50;99.90;;;;;;4996019;28;20093;-68
2023/05/13 03:51:38;;;;;;;10.30;8.82;;;11.40;99.90;;;;;;4996754;28;20509;-68
2023/05/13 03:54:04;;;;;;;10.10;9.10;;;11.40;99.90;;;;;;4995914;28;20133;-68
2023/05/13 03:56:30;;;;;;;11.00;9.02;;;11.40;99.90;;;;;;4995922;28;20046;-68
2023/05/13 03:58:55;;;;;;;13.40;9.32;;;11.40;99.90;;;;;;4995724;28;20054;-68
2023/05/13 04:01:21;;;;;;;11.77;8.25;;;11.40;99.90;;;;;;4995809;28;20498;-68
2023/05/13 04:03:48;;;;;;;12.25;9.70;;;11.40;99.90;;;;;;4995633;28;20050;-68
2023/05/13 04:06:14;;;;;;;13.57;9.45;;;11.40;99.90;;;;;;4979070;28;20058;-68
2023/05/13 04:08:40;;;;;;;9.85;8.85;;;11.30;99.90;;;;;;4995682;28;20053;-68
2023/05/13 04:11:05;;;;;;;14.48;9.27;;;11.30;99.90;;;;;;4995231;28;20083;-68
2023/05/13 04:13:35;;;;;;;14.25;9.48;;;11.30;99.90;;;;;;4994846;28;20050;-69
2023/05/13 04:16:01;;;;;;;9.32;8.38;;;11.30;99.90;;;;;;4995523;28;20042;-68
2023/05/13 04:18:30;;;;;;;13.30;9.00;;;11.30;99.90;;;;;;4995458;28;20555;-68
2023/05/13 04:20:56;;;;;;;11.43;9.43;;;11.30;99.90;;;;;;4995393;28;20054;-68
2023/05/13 04:23:21;;;;;;;12.55;9.27;;;11.30;99.90;;;;;;4994092;28;20426;-68
2023/05/13 04:25:51;;;;;;;10.27;8.90;;;11.30;99.90;;;;;;4994905;28;20077;-69
2023/05/13 04:28:20;;;;;;;10.73;9.23;;;11.30;99.90;;;;;;4995453;28;20495;-68
2023/05/13 04:30:45;;;;;;;10.93;9.15;;;11.30;99.90;;;;;;4996030;28;20069;-68
2023/05/13 04:33:11;;;;;;;12.30;9.30;;;11.30;99.90;;;;;;4994956;28;20463;-69
2023/05/13 04:35:37;;;;;;;11.02;9.77;;;11.30;99.90;;;;;;4995156;28;20056;-69
2023/05/13 04:38:03;;;;;;;11.88;8.45;;;11.30;99.90;;;;;;4995327;28;20046;-68
2023/05/13 04:40:29;;;;;;;11.00;9.10;;;11.40;99.90;;;;;;4994985;28;20046;-69
2023/05/13 04:42:55;;;;;;;10.07;8.95;;;11.40;99.90;;;;;;4993630;28;20049;-68
2023/05/13 04:45:20;;;;;;;12.73;9.48;;;11.40;99.90;;;;;;4995265;28;20478;-68
2023/05/13 04:47:47;;;;;;;15.32;10.02;;;11.40;99.90;;;;;;4977642;28;20050;-68
2023/05/13 04:50:12;;;;;;;12.18;9.32;;;11.50;99.90;;;;;;4994888;28;20057;-69
2023/05/13 04:52:39;;;;;;;13.10;9.70;;;11.40;99.90;;;;;;4993854;28;20050;-68
2023/05/13 04:55:04;;;;;;;13.27;9.63;;;11.40;99.90;;;;;;4977289;28;20484;-68
2023/05/13 04:57:31;;;;;;;14.35;9.85;;;11.40;99.90;;;;;;4977604;28;20057;-68
2023/05/13 04:59:57;;;;;;;12.05;9.38;;;11.50;99.90;;;;;;4995253;28;20062;-68
2023/05/13 05:02:22;;;;;;;10.95;8.88;;;11.50;99.90;;;;;;4994910;28;20047;-68
2023/05/13 05:04:48;;;;;;;11.98;9.25;;;11.50;99.90;;;;;;4994591;28;20408;-68
2023/05/13 05:07:14;;;;;;;14.20;8.70;;;11.50;99.90;;;;;;4995399;28;20118;-68
2023/05/13 05:09:40;;;;;;;11.60;9.57;;;11.50;99.90;;;;;;4994520;28;20553;-68
2023/05/13 05:12:06;;;;;;;12.27;8.85;;;11.50;99.90;;;;;;4977261;28;20081;-68
2023/05/13 05:14:32;;;;;;;12.65;8.80;;;11.60;99.90;;;;;;4994533;28;20054;-68
2023/05/13 05:16:58;;;;;;;12.65;8.45;;;11.60;99.90;;;;;;4993778;28;20097;-68
2023/05/13 05:19:23;;;;;;;12.25;9.75;;;11.60;99.90;;;;;;4994432;28;20093;-68
2023/05/13 05:21:50;;;;;;;11.93;9.02;;;11.70;99.90;;;;;;4994936;28;20046;-68
2023/05/13 05:24:16;;;;;;;11.90;9.73;;;11.70;99.90;;;;;;4993197;28;20133;-68
2023/05/13 05:26:42;;;;;;;11.35;9.15;;;11.80;99.90;;;;;;4994919;28;20050;-68
2023/05/13 05:29:08;;;;;;;10.88;9.13;;;11.80;99.90;;;;;;4994370;28;20053;-68
2023/05/13 05:31:33;;;;;;;12.82;9.43;;;11.90;99.90;;;;;;4994280;28;20046;-68
2023/05/13 05:34:00;;;;;;;12.13;9.23;;;11.90;99.90;;;;;;4993287;28;20051;-68
2023/05/13 05:36:27;;;;;;;12.10;9.40;;;11.90;99.90;;;;;;4993926;28;20513;-68
2023/05/13 05:38:53;;;;;;;12.73;8.65;;;12.00;99.90;;;;;;4994223;28;20057;-68
2023/05/13 05:41:18;;;;;;;11.30;9.18;;;12.00;99.90;;;;;;4994880;28;20050;-68
2023/05/13 05:43:44;;;;;;;11.20;9.50;;;12.00;99.90;;;;;;4994354;28;20043;-69
2023/05/13 05:46:10;;;;;;;10.88;9.35;;;12.10;99.90;;;;;;4994168;28;20053;-68
2023/05/13 05:48:36;;;;;;;11.73;9.60;;;12.20;99.90;;;;;;4977116;28;20057;-68
2023/05/13 05:51:02;;;;;;;12.88;8.57;;;12.20;99.90;;;;;;4992967;28;20140;-68
2023/05/13 05:53:27;;;;;;;12.95;8.98;;;12.20;99.90;;;;;;4993140;28;20388;-68
2023/05/13 05:55:53;;;;;;;12.05;9.75;;;12.20;99.90;;;;;;4998141;28;20042;-67
2023/05/13 05:58:19;;;;;;;11.30;9.10;;;12.30;99.90;;;;;;4998424;28;20381;-68
2023/05/13 06:00:44;;;;;;;10.35;8.93;;;12.40;99.90;;;;;;4998049;28;20054;-68
2023/05/13 06:03:10;;;;;;;10.90;8.80;;;12.40;99.90;;;;;;4997861;28;20051;-68
2023/05/13 06:05:37;;;;;;;10.70;8.43;;;12.50;99.90;;;;;;4997993;28;20055;-68
2023/05/13 06:08:02;;;;;;;13.15;9.20;;;12.50;99.90;;;;;;4997900;28;20050;-68
2023/05/13 06:10:28;;;;;;;12.10;9.18;;;12.50;99.90;;;;;;4997184;28;20057;-67
2023/05/13 06:12:54;;;;;;;10.55;9.32;;;12.60;99.90;;;;;;4997744;28;20084;-68
2023/05/13 06:15:20;;;;;;;11.00;8.90;;;12.70;99.90;;;;;;4997715;28;20047;-67
2023/05/13 06:17:45;;;;;;;11.30;9.05;;;12.70;99.90;;;;;;4981335;28;20097;-68
2023/05/13 06:20:11;;;;;;;13.55;9.50;;;12.70;99.90;;;;;;4997652;28;20495;-67
2023/05/13 06:22:37;;;;;;;12.52;9.00;;;12.80;99.90;;;;;;4997606;28;20038;-69
2023/05/13 06:25:03;;;;;;;10.50;8.52;;;12.80;99.90;;;;;;4997483;28;20134;-68
2023/05/13 06:27:28;;;;;;;10.98;9.48;;;12.80;99.90;;;;;;4997537;28;20049;-68
2023/05/13 06:29:54;;;;;;;11.95;9.30;;;12.90;99.90;;;;;;4996564;28;20387;-67
2023/05/13 06:32:20;;;;;;;12.35;9.57;;;12.90;99.90;;;;;;4997452;28;20104;-69
2023/05/13 06:34:46;;;;;;;12.07;8.95;;;12.90;99.90;;;;;;4997432;28;20046;-69
2023/05/13 06:37:12;;;;;;;9.80;8.80;;;13.00;99.90;;;;;;4997414;28;20050;-68
2023/05/13 06:39:38;;;;;;;10.52;8.18;;;13.00;99.90;;;;;;4998098;28;20154;-68
2023/05/13 06:42:04;;;;;;;10.95;8.00;;;13.10;99.90;;;;;;4997196;28;20057;-68
2023/05/13 06:44:30;;;;;;;10.55;8.02;;;13.10;99.90;;;;;;4997122;28;20050;-68
2023/05/13 06:46:56;;;;;;;11.85;7.63;;;13.20;99.90;;;;;;4997149;28;20049;-68
2023/05/13 06:49:23;;;;;;;8.18;6.75;;;13.30;99.90;;;;;;4997179;28;20386;-68
2023/05/13 06:51:50;;;;;;;8.82;6.70;;;13.40;99.90;;;;;;4997105;28;20137;-69
2023/05/13 06:54:15;;;;;;;10.48;6.80;;;13.50;99.90;;;;;;4997060;28;20077;-65
2023/05/13 06:56:41;;;;;;;9.88;6.97;;;13.50;99.90;;;;;;4997068;28;20093;-68
2023/05/13 06:59:07;;;;;;;6.97;6.10;;;13.60;99.90;;;;;;4997691;28;20166;-68
2023/05/13 07:01:32;;;;;;;9.98;6.50;;;13.70;99.90;;;;;;4996894;28;20116;-68
2023/05/13 07:03:58;;;;;;;10.60;6.35;;;13.70;99.90;;;;;;4995662;28;20050;-68
2023/05/13 07:06:24;;;;;;;7.38;6.28;;;13.80;99.90;;;;;;4996189;28;20454;-68
2023/05/13 07:08:49;;;;;;;6.43;5.82;;;13.90;99.90;;;;;;4996770;28;20394;-68
2023/05/13 07:11:15;;;;;;;7.55;6.20;;;14.00;99.90;;;;;;4995694;28;20454;-68
2023/05/13 07:13:41;;;;;;;9.45;5.72;;;14.00;99.90;;;;;;4996691;28;20038;-70
2023/05/13 07:16:07;;;;;;;9.02;5.68;;;14.10;99.90;;;;;;4997155;28;20050;-68
2023/05/13 07:18:32;;;;;;;7.60;5.80;;;14.30;99.90;;;;;;4997090;28;20042;-68
2023/05/13 07:20:58;;;;;;;9.95;6.70;;;14.30;99.90;;;;;;4995288;28;20061;-68
2023/05/13 07:23:24;;;;;;;9.07;6.55;;;14.40;99.90;;;;;;4996387;28;20049;-68
2023/05/13 07:25:51;;;;;;;8.27;6.38;;;14.50;99.90;;;;;;4979032;28;20054;-68
2023/05/13 07:28:19;;;;;;;7.80;6.18;;;14.50;99.90;;;;;;4996459;28;20509;-68
2023/05/13 07:30:45;;;;;;;9.25;6.18;;;14.60;99.90;;;;;;4996320;28;20046;-70
2023/05/13 07:33:11;;;;;;;7.72;5.57;;;14.70;99.90;;;;;;4996337;28;20125;-68
2023/05/13 07:35:37;;;;;;;9.93;5.97;;;14.80;99.90;;;;;;4996251;28;20046;-68
2023/05/13 07:38:03;;;;;;;7.03;5.32;;;14.80;99.90;;;;;;4996219;28;20088;-68
2023/05/13 07:40:29;;;;;;;7.15;5.35;;;14.90;99.90;;;;;;4979184;28;20144;-67
2023/05/13 07:42:54;;;;;;;7.55;6.00;;;14.90;99.90;;;;;;4995874;28;20101;-67
2023/05/13 07:45:20;;;;;;;6.43;5.20;;;15.00;99.90;;;;;;4995411;28;20445;-68
2023/05/13 07:47:46;;;;;;;7.72;5.88;;;15.10;99.90;;;;;;4994902;28;20050;-67
2023/05/13 07:50:12;;;;;;;7.20;6.15;;;15.10;99.90;;;;;;4994887;28;20054;-67
2023/05/13 07:52:37;;;;;;;7.82;5.82;;;15.20;99.90;;;;;;4995838;28;20101;-68
2023/05/13 07:55:04;;;;;;;11.32;5.60;;;15.20;99.90;;;;;;4996349;28;20053;-67
2023/05/13 07:57:30;;;;;;;8.55;6.63;;;15.30;99.90;;;;;;4996423;28;20051;-67
2023/05/13 07:59:56;;;;;;;8.40;5.93;;;15.30;99.90;;;;;;4996814;28;20061;-68
2023/05/13 08:02:23;;;;;;;7.25;6.57;;;15.40;99.90;;;;;;4994567;28;20058;-67
2023/05/13 08:04:49;;;;;;;9.88;6.45;;;15.50;99.90;;;;;;4995638;28;20050;-67
2023/05/13 08:07:14;;;;;;;9.13;5.75;;;15.50;99.90;;;;;;4995386;28;20049;-67
2023/05/13 08:09:40;;;;;;;7.75;6.03;;;15.60;99.90;;;;;;4996414;28;20129;-67
2023/05/13 08:12:06;;;;;;;8.43;5.35;;;15.60;99.90;;;;;;4995481;28;20476;-66
2023/05/13 08:14:32;;;;;;;9.30;5.65;;;15.70;99.90;;;;;;4996290;28;20116;-67
2023/05/13 08:16:58;;;;;;;7.15;5.75;;;15.70;99.90;;;;;;4994668;28;20042;-65
2023/05/13 08:19:23;;;;;;;6.70;5.43;;;15.80;99.90;;;;;;4995430;28;20050;-66
2023/05/13 08:21:49;;;;;;;7.28;5.75;;;15.90;99.90;;;;;;4995393;28;20042;-67
2023/05/13 08:24:15;;;;;;;9.35;6.45;;;15.90;99.90;;;;;;4995269;28;20097;-67
2023/05/13 08:26:40;;;;;;;8.90;6.22;;;16.00;99.90;;;;;;4994331;28;20043;-66
2023/05/13 08:29:07;;;;;;;9.07;6.03;;;16.00;99.90;;;;;;4994929;28;20046;-65
2023/05/13 08:31:33;;;;;;;9.38;6.80;;;16.10;99.90;;;;;;4977975;28;20054;-67
2023/05/13 08:33:58;;;;;;;7.20;6.30;;;16.10;99.90;;;;;;4995272;28;20043;-67
2023/05/13 08:36:25;;;;;;;7.65;6.07;;;16.20;99.90;;;;;;4996088;28;20437;-66
2023/05/13 08:38:51;;;;;;;9.13;6.63;;;16.30;99.90;;;;;;4995216;28;20046;-67
2023/05/13 08:41:17;;;;;;;10.10;7.18;;;16.30;99.90;;;;;;4995695;28;20043;-66
2023/05/13 08:43:43;;;;;;;8.70;6.60;;;16.30;99.90;;;;;;4993867;28;20053;-67
2023/05/13 08:46:10;;;;;;;7.43;6.55;;;16.40;99.90;;;;;;4995626;28;20220;-67
2023/05/13 08:48:38;;;;;;;7.55;5.45;;;16.40;99.90;;;;;;4995029;28;20054;-67
2023/05/13 08:51:04;;;;;;;7.60;6.45;;;16.50;99.90;;;;;;4995835;28;20126;-67
2023/05/13 08:53:30;;;;;;;8.27;6.45;;;16.60;99.90;;;;;;4994936;28;20542;-67
2023/05/13 08:55:56;;;;;;;8.50;6.43;;;16.60;99.90;;;;;;4994947;28;20058;-67
2023/05/13 08:58:24;;;;;;;7.85;5.60;;;16.70;99.90;;;;;;4993492;28;20046;-67
2023/05/13 09:00:52;;;;;;;7.97;6.22;;;16.70;99.90;;;;;;4995708;28;20139;-67
2023/05/13 09:03:20;;;;;;;8.70;6.15;;;16.80;99.90;;;;;;4994388;28;20494;-67
2023/05/13 09:05:46;;;;;;;7.22;5.82;;;16.90;99.90;;;;;;4994805;28;20050;-67
2023/05/13 09:08:12;;;;;;;10.50;5.65;;;16.90;99.90;;;;;;4994770;28;20050;-67
2023/05/13 09:10:38;;;;;;;7.78;4.85;;;17.00;99.90;;;;;;4995205;28;20046;-67
2023/05/13 09:13:04;;;;;;;5.45;4.63;;;17.00;99.90;;;;;;4994619;28;20185;-67
2023/05/13 09:15:31;;;;;;;7.35;4.95;;;17.10;99.90;;;;;;4994552;28;20042;-67
2023/05/13 09:18:04;;;;;;;5.80;5.20;;;17.20;99.90;;;;;;4993472;28;20402;-67
2023/05/13 09:20:31;;;;;;;8.45;5.10;;;17.20;99.90;;;;;;4994579;28;20051;-67
2023/05/13 09:22:58;;;;;;;7.40;5.93;;;17.30;99.90;;;;;;4995094;28;20443;-67
2023/05/13 09:25:25;;;;;;;5.43;4.85;;;17.30;99.90;;;;;;4994345;28;20052;-67
2023/05/13 09:28:00;;;;;;;5.65;4.53;;;17.40;99.90;;;;;;4993056;28;20054;-67
2023/05/13 09:30:34;;;;;;;7.32;4.45;;;17.50;99.90;;;;;;4995262;28;20057;-67
2023/05/13 09:33:03;;;;;;;7.28;5.18;;;17.50;99.90;;;;;;4994513;28;20085;-67
2023/05/13 09:35:31;;;;;;;5.95;4.85;;;17.60;99.90;;;;;;4993669;28;20132;-69
2023/05/13 09:37:57;;;;;;;8.98;4.88;;;17.70;99.90;;;;;;4994351;28;20539;-67
2023/05/13 09:40:23;;;;;;;6.97;4.65;;;17.80;99.90;;;;;;4994326;28;20082;-67
2023/05/13 09:42:49;;;;;;;7.28;5.15;;;17.80;99.90;;;;;;4993292;28;20386;-67
2023/05/13 09:45:16;;;;;;;6.80;4.20;;;17.90;99.90;;;;;;4994200;28;20038;-67
2023/05/13 09:47:42;;;;;;;6.97;4.63;;;17.90;99.90;;;;;;4992844;28;20096;-68
2023/05/13 09:50:10;;;;;;;6.75;4.32;;;17.90;99.90;;;;;;4994131;28;20074;-67
2023/05/13 09:52:37;;;;;;;6.55;3.70;;;18.00;99.90;;;;;;4994190;28;20125;-67
2023/05/13 09:55:07;;;;;;;4.95;4.13;;;18.00;99.90;;;;;;4994672;28;20046;-67
2023/05/13 09:57:33;;;;;;;4.63;3.95;;;18.10;99.90;;;;;;4994099;28;20069;-67
2023/05/13 10:00:00;;;;;;;4.53;3.97;;;18.20;99.90;;;;;;4992883;28;20094;-67
2023/05/13 10:02:27;;;;;;;3.88;3.17;;;18.20;99.90;;;;;;4994079;28;20081;-69
2023/05/13 10:04:57;;;;;;;5.20;3.50;;;18.30;99.90;;;;;;4994013;28;20053;-67
2023/05/13 10:07:24;;;;;;;6.13;3.40;;;18.40;99.90;;;;;;4993876;28;20047;-67
2023/05/13 10:10:06;;;;;;;3.63;3.05;;;18.40;99.90;;;;;;4993974;28;20101;-67
2023/05/13 10:12:35;;;;;;;5.30;3.00;;;18.50;99.90;;;;;;4994013;28;20054;-72
2023/05/13 10:15:01;;;;;;;4.80;3.15;;;18.50;99.90;;;;;;4994722;28;20122;-67
2023/05/13 10:17:28;;;;;;;3.47;3.03;;;18.60;99.90;;;;;;4994202;28;20128;-66
2023/05/13 10:19:54;;;;;;;5.72;2.78;;;18.70;99.90;;;;;;4994007;28;20046;-67
2023/05/13 10:22:32;;;;;;;5.40;3.38;;;18.70;99.90;;;;;;4993686;28;20386;-67
2023/05/13 10:24:59;;;;;;;6.80;3.42;;;18.80;99.90;;;;;;4994391;28;20065;-67
2023/05/13 10:27:30;;;;;;;3.42;3.13;;;18.80;99.90;;;;;;4992409;28;20549;-68
2023/05/13 10:29:57;;;;;;;6.53;3.33;;;18.90;99.90;;;;;;4993254;28;20137;-67
2023/05/13 10:32:28;;;;;;;5.95;3.22;;;18.90;99.90;;;;;;4993868;28;20058;-66
2023/05/13 10:35:20;;;;;;;5.75;3.67;;;19.00;99.90;;;;;;4994107;28;20049;-66
2023/05/13 10:38:04;;;;;;;7.55;3.45;;;19.10;99.90;;;;;;4993188;28;20417;-66
2023/05/13 10:40:47;;;;;;;4.65;3.00;;;19.20;99.90;;;;;;4996094;28;20053;-68
2023/05/13 10:43:17;;;;;;;4.65;3.50;;;19.20;99.90;;;;;;4996616;28;20050;-66
2023/05/13 10:45:45;;;;;;;6.43;3.63;;;19.30;99.90;;;;;;4997645;28;20043;-67
2023/05/13 10:48:12;;;;;;;4.53;3.10;;;19.40;99.90;;;;;;4997190;28;20050;-68
2023/05/13 10:50:38;;;;;;;3.03;2.72;;;19.40;99.90;;;;;;4997325;28;20057;-68
2023/05/13 10:53:11;;;;;;;4.25;2.78;;;19.40;99.90;;;;;;4997205;28;20050;-70
2023/05/13 10:55:44;;;;;;;4.20;2.90;;;19.50;99.90;;;;;;4998061;28;20053;-71
2023/05/13 10:58:13;;;;;;;2.33;1.95;;;19.60;99.90;;;;;;4996021;28;20055;-71
2023/05/13 11:00:41;;;;;;;2.90;1.80;;;19.60;99.90;;;;;;4995366;28;20432;-70
2023/05/13 11:03:26;;;;;;;2.45;1.80;;;19.70;99.90;;;;;;4996641;28;20495;-72
2023/05/13 11:06:14;;;;;;;4.03;1.90;;;19.80;99.90;;;;;;4997287;28;20371;-68
2023/05/13 11:08:45;;;;;;;4.40;2.00;;;19.90;99.90;;;;;;4997764;28;20046;-68
2023/05/13 11:11:18;;;;;;;4.70;1.90;;;19.90;99.90;;;;;;4996849;28;20506;-69
2023/05/13 11:13:43;;;;;;;2.78;2.00;;;20.00;99.90;;;;;;4996811;28;20128;-68
2023/05/13 11:16:12;;;;;;;4.07;1.67;;;20.00;99.90;;;;;;4996784;28;20530;-68
2023/05/13 11:18:38;;;;;;;3.60;2.03;;;20.10;99.90;;;;;;4996766;28;20133;-67
2023/05/13 11:21:05;;;;;;;4.63;1.90;;;20.10;99.90;;;;;;4996548;28;20548;-68
2023/05/13 11:23:33;;;;;;;3.70;1.98;;;20.20;99.90;;;;;;4995590;28;20089;-69
2023/05/13 11:26:15;;;;;;;3.10;1.73;;;20.20;99.90;;;;;;4979308;28;20371;-69
2023/05/13 11:29:04;;;;;;;3.17;1.93;;;20.20;99.90;;;;;;4996467;28;20060;-68
2023/05/13 11:31:51;;;;;;;4.50;1.85;;;20.30;99.90;;;;;;4997281;28;20054;-68
2023/05/13 11:34:18;;;;;;;3.55;1.88;;;20.40;99.90;;;;;;4996464;28;20097;-68
2023/05/13 11:36:47;;;;;;;2.42;2.10;;;20.40;99.60;;;;;;4996480;28;20139;-68
2023/05/13 11:39:17;;;;;;;4.82;1.80;;;20.40;99.20;;;;;;4996356;28;20046;-68
2023/05/13 11:41:50;;;;;;;3.95;2.00;;;20.40;97.10;;;;;;4996311;28;20054;-67
2023/05/13 11:44:21;;;;;;;6.13;2.42;;;20.50;95.30;;;;;;4996241;28;20043;-67
2023/05/13 11:46:56;;;;;;;4.50;1.73;;;20.60;95.60;;;;;;4996225;28;20486;-68
2023/05/13 11:49:49;;;;;;;5.28;2.15;;;20.60;94.70;;;;;;4995184;28;20046;-67
2023/05/13 11:52:16;;;;;;;2.72;1.60;;;20.60;95.50;;;;;;4992815;28;20069;-67
2023/05/13 11:54:48;;;;;;;4.05;1.85;;;20.70;93.80;;;;;;4996041;28;20112;-68
2023/05/13 11:57:16;;;;;;;3.58;1.58;;;20.80;93.40;;;;;;4996044;28;20112;-67
2023/05/13 11:59:56;;;;;;;5.68;1.50;;;20.80;92.70;;;;;;4995999;28;20061;-67
2023/05/13 12:02:27;;;;;;;1.58;1.40;;;20.90;90.80;;;;;;4995942;28;20131;-67
2023/05/13 12:04:53;;;;;;;3.85;1.70;;;20.90;88.40;;;;;;4995841;28;20042;-69
2023/05/13 12:07:23;;;;;;;2.60;1.58;;;20.90;87.70;;;;;;4996345;28;20050;-67
2023/05/13 12:09:50;;;;;;;3.17;1.65;;;20.90;88.90;;;;;;4996519;28;20053;-68
2023/05/13 12:12:16;;;;;;;4.47;1.50;;;21.00;88.60;;;;;;4995622;28;20046;-68
2023/05/13 12:14:45;;;;;;;2.53;1.27;;;21.00;86.70;;;;;;4995710;28;20042;-68
2023/05/13 12:17:12;;;;;;;4.15;1.60;;;21.00;81.10;;;;;;4995619;28;20054;-67
2023/05/13 12:19:39;;;;;;;3.53;1.50;;;21.10;79.40;;;;;;4996232;28;20050;-66
2023/05/13 12:22:05;;;;;;;2.60;1.92;;;21.10;78.30;;;;;;4996093;28;20054;-67
2023/05/13 12:24:33;;;;;;;4.47;1.80;;;21.10;79.10;;;;;;4995449;28;20054;-67
2023/05/13 12:27:06;;;;;;;3.60;1.70;;;21.10;80.80;;;;;;4994388;28;20471;-67
2023/05/13 12:29:42;;;;;;;2.42;1.55;;;21.10;82.20;;;;;;4995415;28;20046;-67
2023/05/13 12:32:10;;;;;;;5.07;1.85;;;21.20;82.10;;;;;;4994226;28;20398;-67
2023/05/13 12:34:37;;;;;;;4.90;1.67;;;21.20;81.90;;;;;;4994237;28;20054;-67
2023/05/13 12:37:13;;;;;;;2.80;1.70;;;21.20;81.50;;;;;;4995572;28;20117;-67
2023/05/13 12:39:40;;;;;;;2.50;2.10;;;21.30;82.20;;;;;;4995238;28;20092;-67
2023/05/13 12:42:16;;;;;;;3.15;1.90;;;21.30;81.20;;;;;;4995178;28;20057;-67
2023/05/13 12:44:44;;;;;;;3.45;1.60;;;21.30;80.50;;;;;;4995118;28;20050;-67